sensor_id;sensor_type;location;lat;lon;timestamp;P1;durP1;ratioP1;P2;durP2;ratioP2
51692;SDS011;37777;53.066;21.638;2022-07-23T00:06:57;22.98;;;15.20;;
51692;SDS011;37777;53.066;21.638;2022-07-23T00:13:59;21.67;;;14.10;;
51692;SDS011;37777;53.066;21.638;2022-07-23T00:21:01;15.98;;;13.55;;
51692;SDS011;37777;53.066;21.638;2022-07-23T00:28:04;22.55;;;15.50;;
51692;SDS011;37777;53.066;21.638;2022-07-23T00:35:06;20.85;;;14.38;;
51692;SDS011;37777;53.066;21.638;2022-07-23T00:42:09;17.05;;;13.52;;
51692;SDS011;37777;53.066;21.638;2022-07-23T00:49:11;18.65;;;14.85;;
51692;SDS011;37777;53.066;21.638;2022-07-23T00:56:13;16.55;;;13.63;;
51692;SDS011;37777;53.066;21.638;2022-07-23T01:03:16;18.60;;;13.75;;
51692;SDS011;37777;53.066;21.638;2022-07-23T01:10:18;20.63;;;13.88;;
51692;SDS011;37777;53.066;21.638;2022-07-23T01:17:36;18.20;;;13.80;;
51692;SDS011;37777;53.066;21.638;2022-07-23T01:24:38;19.08;;;14.18;;
51692;SDS011;37777;53.066;21.638;2022-07-23T01:31:40;17.15;;;11.05;;
51692;SDS011;37777;53.066;21.638;2022-07-23T01:38:43;18.40;;;11.80;;
51692;SDS011;37777;53.066;21.638;2022-07-23T01:45:46;21.08;;;15.98;;
51692;SDS011;37777;53.066;21.638;2022-07-23T01:52:48;17.40;;;14.60;;
51692;SDS011;37777;53.066;21.638;2022-07-23T01:59:50;17.25;;;11.73;;
51692;SDS011;37777;53.066;21.638;2022-07-23T02:06:52;17.23;;;12.68;;
51692;SDS011;37777;53.066;21.638;2022-07-23T02:13:55;16.27;;;13.52;;
51692;SDS011;37777;53.066;21.638;2022-07-23T02:20:57;15.02;;;11.90;;
51692;SDS011;37777;53.066;21.638;2022-07-23T02:27:59;14.98;;;11.30;;
51692;SDS011;37777;53.066;21.638;2022-07-23T02:35:02;15.93;;;13.82;;
51692;SDS011;37777;53.066;21.638;2022-07-23T02:42:04;13.95;;;11.80;;
51692;SDS011;37777;53.066;21.638;2022-07-23T02:49:06;11.07;;;9.85;;
51692;SDS011;37777;53.066;21.638;2022-07-23T02:56:09;10.70;;;9.60;;
51692;SDS011;37777;53.066;21.638;2022-07-23T03:03:11;10.13;;;9.10;;
51692;SDS011;37777;53.066;21.638;2022-07-23T03:10:13;14.05;;;10.13;;
51692;SDS011;37777;53.066;21.638;2022-07-23T03:17:16;16.73;;;13.73;;
51692;SDS011;37777;53.066;21.638;2022-07-23T03:24:18;26.73;;;18.48;;
51692;SDS011;37777;53.066;21.638;2022-07-23T03:31:20;32.85;;;21.48;;
51692;SDS011;37777;53.066;21.638;2022-07-23T03:38:22;37.50;;;21.77;;
51692;SDS011;37777;53.066;21.638;2022-07-23T03:45:24;43.03;;;21.17;;
51692;SDS011;37777;53.066;21.638;2022-07-23T03:52:26;42.55;;;20.13;;
51692;SDS011;37777;53.066;21.638;2022-07-23T03:59:28;26.98;;;18.05;;
51692;SDS011;37777;53.066;21.638;2022-07-23T04:06:31;22.25;;;17.52;;
51692;SDS011;37777;53.066;21.638;2022-07-23T04:13:33;23.95;;;16.17;;
51692;SDS011;37777;53.066;21.638;2022-07-23T04:20:35;20.13;;;15.27;;
51692;SDS011;37777;53.066;21.638;2022-07-23T04:27:41;23.15;;;14.65;;
51692;SDS011;37777;53.066;21.638;2022-07-23T04:34:43;16.75;;;14.35;;
51692;SDS011;37777;53.066;21.638;2022-07-23T04:41:45;16.63;;;13.85;;
51692;SDS011;37777;53.066;21.638;2022-07-23T04:48:47;18.80;;;14.07;;
51692;SDS011;37777;53.066;21.638;2022-07-23T04:55:50;15.93;;;13.80;;
51692;SDS011;37777;53.066;21.638;2022-07-23T05:02:52;18.85;;;12.65;;
51692;SDS011;37777;53.066;21.638;2022-07-23T05:09:54;21.33;;;13.32;;
51692;SDS011;37777;53.066;21.638;2022-07-23T05:16:56;18.85;;;13.20;;
51692;SDS011;37777;53.066;21.638;2022-07-23T05:23:58;16.33;;;11.95;;
51692;SDS011;37777;53.066;21.638;2022-07-23T05:31:01;18.83;;;13.10;;
51692;SDS011;37777;53.066;21.638;2022-07-23T05:38:03;14.75;;;10.90;;
51692;SDS011;37777;53.066;21.638;2022-07-23T05:45:05;16.75;;;11.15;;
51692;SDS011;37777;53.066;21.638;2022-07-23T05:52:08;16.90;;;11.57;;
51692;SDS011;37777;53.066;21.638;2022-07-23T05:59:10;16.17;;;11.48;;
51692;SDS011;37777;53.066;21.638;2022-07-23T06:06:14;18.05;;;12.00;;
51692;SDS011;37777;53.066;21.638;2022-07-23T06:13:19;14.55;;;11.93;;
51692;SDS011;37777;53.066;21.638;2022-07-23T06:20:22;30.33;;;11.40;;
51692;SDS011;37777;53.066;21.638;2022-07-23T06:27:24;12.75;;;10.30;;
51692;SDS011;37777;53.066;21.638;2022-07-23T06:34:27;14.13;;;10.73;;
51692;SDS011;37777;53.066;21.638;2022-07-23T06:41:29;13.60;;;9.82;;
51692;SDS011;37777;53.066;21.638;2022-07-23T06:48:31;15.43;;;10.02;;
51692;SDS011;37777;53.066;21.638;2022-07-23T06:55:33;12.55;;;9.30;;
51692;SDS011;37777;53.066;21.638;2022-07-23T07:02:39;15.85;;;10.20;;
51692;SDS011;37777;53.066;21.638;2022-07-23T07:09:42;15.82;;;10.27;;
51692;SDS011;37777;53.066;21.638;2022-07-23T07:16:46;13.55;;;10.30;;
51692;SDS011;37777;53.066;21.638;2022-07-23T07:23:48;21.45;;;10.00;;
51692;SDS011;37777;53.066;21.638;2022-07-23T07:30:50;15.82;;;9.57;;
51692;SDS011;37777;53.066;21.638;2022-07-23T07:37:52;12.68;;;9.43;;
51692;SDS011;37777;53.066;21.638;2022-07-23T07:44:54;17.25;;;9.57;;
51692;SDS011;37777;53.066;21.638;2022-07-23T07:51:56;12.70;;;9.95;;
51692;SDS011;37777;53.066;21.638;2022-07-23T07:58:58;12.70;;;9.52;;
51692;SDS011;37777;53.066;21.638;2022-07-23T08:06:00;16.60;;;10.50;;
51692;SDS011;37777;53.066;21.638;2022-07-23T08:13:02;15.82;;;9.90;;
51692;SDS011;37777;53.066;21.638;2022-07-23T08:20:05;15.95;;;10.57;;
51692;SDS011;37777;53.066;21.638;2022-07-23T08:27:08;16.27;;;11.88;;
51692;SDS011;37777;53.066;21.638;2022-07-23T08:34:10;15.48;;;11.07;;
51692;SDS011;37777;53.066;21.638;2022-07-23T08:41:12;14.57;;;10.90;;
51692;SDS011;37777;53.066;21.638;2022-07-23T08:48:21;15.82;;;9.23;;
51692;SDS011;37777;53.066;21.638;2022-07-23T08:55:24;12.30;;;9.43;;
51692;SDS011;37777;53.066;21.638;2022-07-23T09:02:26;12.82;;;8.25;;
51692;SDS011;37777;53.066;21.638;2022-07-23T09:09:28;14.50;;;8.77;;
51692;SDS011;37777;53.066;21.638;2022-07-23T09:16:32;11.35;;;9.02;;
51692;SDS011;37777;53.066;21.638;2022-07-23T09:23:38;19.23;;;8.95;;
51692;SDS011;37777;53.066;21.638;2022-07-23T09:30:41;16.57;;;7.83;;
51692;SDS011;37777;53.066;21.638;2022-07-23T09:38:02;9.05;;;7.70;;
51692;SDS011;37777;53.066;21.638;2022-07-23T09:45:04;15.73;;;7.90;;
51692;SDS011;37777;53.066;21.638;2022-07-23T09:59:15;11.93;;;6.63;;
51692;SDS011;37777;53.066;21.638;2022-07-23T10:06:20;9.53;;;7.07;;
51692;SDS011;37777;53.066;21.638;2022-07-23T10:13:23;9.82;;;6.25;;
51692;SDS011;37777;53.066;21.638;2022-07-23T10:20:44;8.30;;;6.88;;
51692;SDS011;37777;53.066;21.638;2022-07-23T10:28:03;10.10;;;6.57;;
51692;SDS011;37777;53.066;21.638;2022-07-23T10:42:17;12.73;;;6.20;;
51692;SDS011;37777;53.066;21.638;2022-07-23T10:49:22;8.82;;;6.28;;
51692;SDS011;37777;53.066;21.638;2022-07-23T11:03:56;27.38;;;6.57;;
51692;SDS011;37777;53.066;21.638;2022-07-23T11:18:02;8.93;;;5.75;;
51692;SDS011;37777;53.066;21.638;2022-07-23T11:25:04;8.75;;;4.53;;
51692;SDS011;37777;53.066;21.638;2022-07-23T11:32:08;6.32;;;4.95;;
51692;SDS011;37777;53.066;21.638;2022-07-23T11:39:20;8.57;;;4.93;;
51692;SDS011;37777;53.066;21.638;2022-07-23T11:46:23;6.45;;;4.53;;
51692;SDS011;37777;53.066;21.638;2022-07-23T11:53:29;10.55;;;6.28;;
51692;SDS011;37777;53.066;21.638;2022-07-23T12:00:35;7.28;;;4.88;;
51692;SDS011;37777;53.066;21.638;2022-07-23T12:07:42;13.40;;;7.35;;
51692;SDS011;37777;53.066;21.638;2022-07-23T12:14:51;8.93;;;5.57;;
51692;SDS011;37777;53.066;21.638;2022-07-23T12:21:54;33.67;;;15.90;;
51692;SDS011;37777;53.066;21.638;2022-07-23T12:28:56;8.68;;;4.75;;
51692;SDS011;37777;53.066;21.638;2022-07-23T12:35:59;8.35;;;4.75;;
51692;SDS011;37777;53.066;21.638;2022-07-23T12:43:09;7.40;;;4.20;;
51692;SDS011;37777;53.066;21.638;2022-07-23T12:50:37;9.75;;;5.22;;
51692;SDS011;37777;53.066;21.638;2022-07-23T12:57:52;11.23;;;5.65;;
51692;SDS011;37777;53.066;21.638;2022-07-23T13:05:21;7.57;;;5.00;;
51692;SDS011;37777;53.066;21.638;2022-07-23T13:12:25;6.38;;;5.05;;
51692;SDS011;37777;53.066;21.638;2022-07-23T13:19:27;6.47;;;4.97;;
51692;SDS011;37777;53.066;21.638;2022-07-23T13:26:29;7.03;;;5.15;;
51692;SDS011;37777;53.066;21.638;2022-07-23T13:33:31;10.77;;;5.15;;
51692;SDS011;37777;53.066;21.638;2022-07-23T13:40:35;6.60;;;5.50;;
51692;SDS011;37777;53.066;21.638;2022-07-23T13:47:39;7.15;;;5.38;;
51692;SDS011;37777;53.066;21.638;2022-07-23T13:54:44;6.35;;;5.10;;
51692;SDS011;37777;53.066;21.638;2022-07-23T14:01:46;8.27;;;5.72;;
51692;SDS011;37777;53.066;21.638;2022-07-23T14:09:08;11.15;;;6.25;;
51692;SDS011;37777;53.066;21.638;2022-07-23T14:16:10;10.52;;;5.70;;
51692;SDS011;37777;53.066;21.638;2022-07-23T14:23:12;8.50;;;5.45;;
51692;SDS011;37777;53.066;21.638;2022-07-23T14:30:15;7.15;;;5.90;;
51692;SDS011;37777;53.066;21.638;2022-07-23T14:37:23;9.68;;;5.57;;
51692;SDS011;37777;53.066;21.638;2022-07-23T14:44:26;12.95;;;6.10;;
51692;SDS011;37777;53.066;21.638;2022-07-23T14:51:29;7.15;;;5.60;;
51692;SDS011;37777;53.066;21.638;2022-07-23T14:58:31;6.65;;;5.50;;
51692;SDS011;37777;53.066;21.638;2022-07-23T15:05:33;11.93;;;5.78;;
51692;SDS011;37777;53.066;21.638;2022-07-23T15:12:36;9.20;;;6.78;;
51692;SDS011;37777;53.066;21.638;2022-07-23T15:19:39;13.30;;;7.68;;
51692;SDS011;37777;53.066;21.638;2022-07-23T15:26:41;10.20;;;6.47;;
51692;SDS011;37777;53.066;21.638;2022-07-23T15:33:44;25.17;;;15.95;;
51692;SDS011;37777;53.066;21.638;2022-07-23T15:40:46;11.50;;;8.07;;
51692;SDS011;37777;53.066;21.638;2022-07-23T15:47:49;26.83;;;13.23;;
51692;SDS011;37777;53.066;21.638;2022-07-23T15:54:51;12.10;;;7.15;;
51692;SDS011;37777;53.066;21.638;2022-07-23T16:01:53;16.45;;;6.72;;
51692;SDS011;37777;53.066;21.638;2022-07-23T16:08:55;15.50;;;6.65;;
51692;SDS011;37777;53.066;21.638;2022-07-23T16:16:04;14.60;;;6.60;;
51692;SDS011;37777;53.066;21.638;2022-07-23T16:23:06;7.60;;;6.18;;
51692;SDS011;37777;53.066;21.638;2022-07-23T16:30:10;10.45;;;6.72;;
51692;SDS011;37777;53.066;21.638;2022-07-23T16:37:13;9.68;;;6.85;;
51692;SDS011;37777;53.066;21.638;2022-07-23T16:44:15;10.38;;;5.78;;
51692;SDS011;37777;53.066;21.638;2022-07-23T16:51:19;11.40;;;6.90;;
51692;SDS011;37777;53.066;21.638;2022-07-23T16:58:50;10.07;;;6.05;;
51692;SDS011;37777;53.066;21.638;2022-07-23T17:05:58;10.73;;;7.10;;
51692;SDS011;37777;53.066;21.638;2022-07-23T17:13:00;14.20;;;5.57;;
51692;SDS011;37777;53.066;21.638;2022-07-23T17:20:03;11.10;;;6.53;;
51692;SDS011;37777;53.066;21.638;2022-07-23T17:27:07;8.10;;;5.65;;
51692;SDS011;37777;53.066;21.638;2022-07-23T17:34:09;21.58;;;5.65;;
51692;SDS011;37777;53.066;21.638;2022-07-23T17:41:11;10.32;;;5.60;;
51692;SDS011;37777;53.066;21.638;2022-07-23T17:48:13;11.55;;;6.20;;
51692;SDS011;37777;53.066;21.638;2022-07-23T17:55:16;6.93;;;5.32;;
51692;SDS011;37777;53.066;21.638;2022-07-23T18:02:23;9.50;;;5.70;;
51692;SDS011;37777;53.066;21.638;2022-07-23T18:09:25;10.00;;;6.00;;
51692;SDS011;37777;53.066;21.638;2022-07-23T18:16:27;8.30;;;5.90;;
51692;SDS011;37777;53.066;21.638;2022-07-23T18:23:29;9.50;;;6.05;;
51692;SDS011;37777;53.066;21.638;2022-07-23T18:30:32;8.77;;;6.10;;
51692;SDS011;37777;53.066;21.638;2022-07-23T18:37:34;13.68;;;6.93;;
51692;SDS011;37777;53.066;21.638;2022-07-23T18:44:38;11.90;;;6.43;;
51692;SDS011;37777;53.066;21.638;2022-07-23T18:51:40;11.93;;;6.07;;
51692;SDS011;37777;53.066;21.638;2022-07-23T18:58:42;10.57;;;6.30;;
51692;SDS011;37777;53.066;21.638;2022-07-23T19:05:44;8.88;;;6.53;;
51692;SDS011;37777;53.066;21.638;2022-07-23T19:12:46;10.50;;;7.03;;
51692;SDS011;37777;53.066;21.638;2022-07-23T19:19:48;10.00;;;6.50;;
51692;SDS011;37777;53.066;21.638;2022-07-23T19:26:50;16.13;;;7.30;;
51692;SDS011;37777;53.066;21.638;2022-07-23T19:33:53;23.15;;;7.10;;
51692;SDS011;37777;53.066;21.638;2022-07-23T19:40:57;13.48;;;7.72;;
51692;SDS011;37777;53.066;21.638;2022-07-23T19:47:59;9.55;;;6.88;;
51692;SDS011;37777;53.066;21.638;2022-07-23T19:55:02;8.40;;;6.78;;
51692;SDS011;37777;53.066;21.638;2022-07-23T20:02:06;13.05;;;6.82;;
51692;SDS011;37777;53.066;21.638;2022-07-23T20:09:08;11.18;;;7.38;;
51692;SDS011;37777;53.066;21.638;2022-07-23T20:16:10;10.88;;;6.97;;
51692;SDS011;37777;53.066;21.638;2022-07-23T20:23:12;11.75;;;7.05;;
51692;SDS011;37777;53.066;21.638;2022-07-23T20:30:15;16.80;;;8.80;;
51692;SDS011;37777;53.066;21.638;2022-07-23T20:37:17;19.95;;;8.80;;
51692;SDS011;37777;53.066;21.638;2022-07-23T20:44:19;14.65;;;7.72;;
51692;SDS011;37777;53.066;21.638;2022-07-23T20:51:22;13.30;;;8.60;;
51692;SDS011;37777;53.066;21.638;2022-07-23T20:58:25;17.10;;;10.05;;
51692;SDS011;37777;53.066;21.638;2022-07-23T21:05:28;12.48;;;8.18;;
51692;SDS011;37777;53.066;21.638;2022-07-23T21:12:31;15.75;;;8.70;;
51692;SDS011;37777;53.066;21.638;2022-07-23T21:19:33;25.88;;;8.88;;
51692;SDS011;37777;53.066;21.638;2022-07-23T21:26:35;12.00;;;9.43;;
51692;SDS011;37777;53.066;21.638;2022-07-23T21:33:47;17.77;;;8.82;;
51692;SDS011;37777;53.066;21.638;2022-07-23T21:40:56;14.25;;;9.75;;
51692;SDS011;37777;53.066;21.638;2022-07-23T21:47:58;14.10;;;9.15;;
51692;SDS011;37777;53.066;21.638;2022-07-23T21:55:00;12.95;;;9.52;;
51692;SDS011;37777;53.066;21.638;2022-07-23T22:02:02;14.50;;;9.02;;
51692;SDS011;37777;53.066;21.638;2022-07-23T22:09:05;13.38;;;8.60;;
51692;SDS011;37777;53.066;21.638;2022-07-23T22:16:07;14.07;;;9.95;;
51692;SDS011;37777;53.066;21.638;2022-07-23T22:23:10;15.73;;;10.70;;
51692;SDS011;37777;53.066;21.638;2022-07-23T22:30:13;17.55;;;10.75;;
51692;SDS011;37777;53.066;21.638;2022-07-23T22:37:16;18.70;;;11.63;;
51692;SDS011;37777;53.066;21.638;2022-07-23T22:44:18;22.92;;;12.93;;
51692;SDS011;37777;53.066;21.638;2022-07-23T22:51:20;15.23;;;11.52;;
51692;SDS011;37777;53.066;21.638;2022-07-23T22:58:22;16.02;;;12.30;;
51692;SDS011;37777;53.066;21.638;2022-07-23T23:05:25;22.25;;;14.55;;
51692;SDS011;37777;53.066;21.638;2022-07-23T23:12:27;17.20;;;13.23;;
51692;SDS011;37777;53.066;21.638;2022-07-23T23:19:29;16.85;;;12.52;;
51692;SDS011;37777;53.066;21.638;2022-07-23T23:26:32;17.85;;;11.68;;
51692;SDS011;37777;53.066;21.638;2022-07-23T23:33:34;16.90;;;12.75;;
51692;SDS011;37777;53.066;21.638;2022-07-23T23:40:36;18.80;;;14.13;;
51692;SDS011;37777;53.066;21.638;2022-07-23T23:47:38;16.75;;;13.50;;
51692;SDS011;37777;53.066;21.638;2022-07-23T23:54:40;17.88;;;12.82;;
